Time;durP1;ratioP1;P1;durP2;ratioP2;P2;SDS_P1;SDS_P2;PMS_P1;PMS_P2;Temp;Humidity;BMP_temperature;BMP_pressure;BME280_temperature;BME280_humidity;BME280_pressure;Samples;Min_cycle;Max_cycle;Signal;HPM_P1;HPM_P2
2021/04/12 00:00:46;;;;;;;5.78;1.23;;;8.50;99.90;;;;;;5038427;28;21026;-72
2021/04/12 00:03:17;;;;;;;1.60;1.30;;;8.50;99.90;;;;;;5036907;28;20214;-72
2021/04/12 00:05:48;;;;;;;1.40;1.20;;;8.50;99.90;;;;;;5037296;28;20191;-72
2021/04/12 00:08:21;;;;;;;1.80;1.30;;;8.50;99.90;;;;;;5047516;28;20203;-72
2021/04/12 00:10:56;;;;;;;1.48;1.23;;;8.50;99.90;;;;;;5053406;28;20198;-72
2021/04/12 00:13:29;;;;;;;2.30;1.10;;;8.50;99.90;;;;;;5050719;28;20209;-72
2021/04/12 00:16:01;;;;;;;2.40;1.20;;;8.40;99.90;;;;;;5049702;28;20548;-72
2021/04/12 00:18:32;;;;;;;3.35;1.20;;;8.40;99.90;;;;;;5048376;28;20194;-72
2021/04/12 00:21:04;;;;;;;1.75;1.23;;;8.40;99.90;;;;;;5035329;28;20223;-71
2021/04/12 00:23:36;;;;;;;1.52;1.42;;;8.40;99.90;;;;;;5040325;28;20788;-72
2021/04/12 00:26:09;;;;;;;1.48;1.38;;;8.40;99.90;;;;;;5037834;28;20258;-73
2021/04/12 00:28:40;;;;;;;3.88;1.80;;;8.40;99.90;;;;;;5046730;28;20222;-71
2021/04/12 00:31:13;;;;;;;2.08;1.23;;;8.40;99.90;;;;;;5053142;28;20523;-71
2021/04/12 00:33:45;;;;;;;1.75;1.35;;;8.40;99.90;;;;;;5031701;28;20200;-71
2021/04/12 00:36:19;;;;;;;2.50;1.45;;;8.40;99.90;;;;;;5032533;28;20214;-72
2021/04/12 00:38:55;;;;;;;1.50;1.40;;;8.30;99.90;;;;;;5032030;28;20206;-71
2021/04/12 00:41:57;;;;;;;1.77;1.23;;;8.30;99.90;;;;;;5044845;28;20229;-71
2021/04/12 00:44:36;;;;;;;1.88;1.35;;;8.30;99.90;;;;;;5003845;28;20198;-70
2021/04/12 00:47:16;;;;;;;2.00;1.40;;;8.30;99.90;;;;;;5034467;28;20223;-71
2021/04/12 00:49:52;;;;;;;8.70;2.38;;;8.30;99.90;;;;;;5032535;28;20264;-70
2021/04/12 00:52:45;;;;;;;2.13;1.10;;;8.30;99.90;;;;;;5040436;28;20203;-71
2021/04/12 00:55:32;;;;;;;1.60;1.33;;;8.20;99.90;;;;;;5037156;28;20205;-71
2021/04/12 00:58:11;;;;;;;1.45;1.10;;;8.20;99.90;;;;;;5041966;28;20654;-71
2021/04/12 01:00:41;;;;;;;1.55;1.20;;;8.20;99.90;;;;;;5033365;28;20639;-70
2021/04/12 01:03:21;;;;;;;1.60;1.17;;;8.20;99.90;;;;;;5035655;28;20659;-71
2021/04/12 01:06:00;;;;;;;2.38;1.30;;;8.20;99.90;;;;;;5035467;28;20199;-70
2021/04/12 01:08:49;;;;;;;4.32;1.15;;;8.20;99.90;;;;;;5043506;28;20265;-71
2021/04/12 01:11:49;;;;;;;1.63;1.30;;;8.20;99.90;;;;;;5039807;28;20199;-71
2021/04/12 01:15:06;;;;;;;1.63;1.40;;;8.20;99.90;;;;;;5031552;28;20258;-71
2021/04/12 01:17:47;;;;;;;1.40;1.25;;;8.20;99.90;;;;;;5031602;28;20203;-71
2021/04/12 01:20:48;;;;;;;1.20;0.98;;;8.10;99.90;;;;;;5035833;28;20508;-71
2021/04/12 01:23:45;;;;;;;1.55;1.33;;;8.20;99.90;;;;;;5035761;28;20199;-71
2021/04/12 01:26:54;;;;;;;1.50;0.98;;;8.10;99.90;;;;;;5037361;28;20201;-71
2021/04/12 01:30:24;;;;;;;1.63;1.00;;;8.10;99.90;;;;;;5038549;28;20195;-71
2021/04/12 01:33:29;;;;;;;2.38;1.52;;;8.10;99.90;;;;;;5037671;28;20198;-72
2021/04/12 01:36:24;;;;;;;3.58;1.42;;;8.10;99.90;;;;;;5034238;28;20215;-72
2021/04/12 01:39:08;;;;;;;2.28;1.45;;;8.10;99.90;;;;;;5036644;28;20260;-72
2021/04/12 01:41:46;;;;;;;2.10;1.15;;;8.00;99.90;;;;;;5043929;28;20278;-71
2021/04/12 01:44:24;;;;;;;1.60;1.10;;;8.10;99.90;;;;;;5036293;28;20191;-72
2021/04/12 01:47:00;;;;;;;2.20;1.10;;;8.10;99.90;;;;;;5043328;28;20195;-72
2021/04/12 01:49:48;;;;;;;2.38;1.35;;;8.10;99.90;;;;;;5031487;28;20192;-72
2021/04/12 01:52:34;;;;;;;2.25;1.45;;;8.10;99.90;;;;;;5034904;28;20199;-72
2021/04/12 01:55:14;;;;;;;1.50;1.35;;;8.00;99.90;;;;;;5031521;28;20188;-72
2021/04/12 01:58:02;;;;;;;3.33;1.70;;;8.00;99.90;;;;;;5039295;28;20205;-72
2021/04/12 02:00:53;;;;;;;1.50;1.15;;;8.00;99.90;;;;;;5037100;28;20215;-71
2021/04/12 02:03:45;;;;;;;2.03;1.10;;;8.00;99.90;;;;;;5040203;28;20195;-72
2021/04/12 02:06:40;;;;;;;1.42;1.17;;;7.90;99.90;;;;;;5035130;28;20689;-71
2021/04/12 02:09:24;;;;;;;1.63;1.10;;;8.00;99.90;;;;;;5042769;28;20281;-72
2021/04/12 02:12:09;;;;;;;4.13;1.45;;;8.00;99.90;;;;;;5035548;28;20190;-72
2021/04/12 02:15:04;;;;;;;1.40;1.13;;;8.00;99.90;;;;;;5049974;28;20211;-72
2021/04/12 02:17:45;;;;;;;6.05;1.38;;;8.00;99.90;;;;;;5030804;28;20210;-72
2021/04/12 02:20:17;;;;;;;3.05;1.45;;;7.90;99.90;;;;;;5039283;28;20249;-72
2021/04/12 02:22:59;;;;;;;1.83;1.40;;;8.00;99.90;;;;;;5041503;28;20635;-71
2021/04/12 02:25:38;;;;;;;1.65;1.42;;;7.90;99.90;;;;;;5049685;28;20217;-71
2021/04/12 02:28:19;;;;;;;2.55;1.15;;;8.00;99.90;;;;;;5042661;28;20241;-72
2021/04/12 02:30:52;;;;;;;4.57;1.20;;;7.90;99.90;;;;;;5044054;28;20192;-72
2021/04/12 02:33:31;;;;;;;1.60;1.15;;;7.90;99.90;;;;;;5037623;28;20222;-72
2021/04/12 02:36:11;;;;;;;4.43;1.40;;;7.90;99.90;;;;;;5040880;28;20273;-72
2021/04/12 02:38:46;;;;;;;1.92;1.50;;;7.90;99.90;;;;;;5042960;28;20250;-72
2021/04/12 02:41:50;;;;;;;1.25;1.10;;;7.90;99.90;;;;;;5038996;28;20221;-71
2021/04/12 02:44:30;;;;;;;2.20;1.95;;;7.90;99.90;;;;;;5040648;28;20222;-72
2021/04/12 02:47:18;;;;;;;1.40;1.30;;;7.90;99.90;;;;;;5041544;28;20229;-71
2021/04/12 02:49:55;;;;;;;2.13;1.23;;;7.80;99.90;;;;;;5037718;28;20194;-72
2021/04/12 02:52:31;;;;;;;2.67;1.40;;;7.80;99.90;;;;;;5053661;28;20213;-72
2021/04/12 02:55:23;;;;;;;3.15;1.40;;;7.80;99.90;;;;;;5045319;28;20265;-72
2021/04/12 02:58:28;;;;;;;2.05;1.23;;;7.80;99.90;;;;;;5031859;28;20588;-73
2021/04/12 03:01:09;;;;;;;3.75;1.42;;;7.80;99.90;;;;;;5037865;28;20563;-71
2021/04/12 03:04:13;;;;;;;1.30;1.10;;;7.80;99.90;;;;;;5042068;28;20199;-71
2021/04/12 03:07:01;;;;;;;1.60;1.27;;;7.70;99.90;;;;;;4990158;28;20595;-72
2021/04/12 03:09:45;;;;;;;1.30;0.95;;;7.80;99.90;;;;;;5044999;28;20288;-72
2021/04/12 03:12:39;;;;;;;2.05;1.27;;;7.80;99.90;;;;;;5034938;28;20238;-72
2021/04/12 03:15:48;;;;;;;1.90;1.20;;;7.70;99.90;;;;;;5034032;28;20195;-72
2021/04/12 03:18:28;;;;;;;1.42;1.13;;;7.70;99.90;;;;;;5052856;28;20471;-72
2021/04/12 03:21:27;;;;;;;1.65;1.42;;;7.70;99.90;;;;;;5038055;28;20686;-71
2021/04/12 03:24:04;;;;;;;2.22;1.30;;;7.70;99.90;;;;;;5032684;28;20209;-71
2021/04/12 03:27:05;;;;;;;1.50;1.20;;;7.70;99.90;;;;;;5053720;28;20225;-71
2021/04/12 03:29:40;;;;;;;1.55;1.25;;;7.60;99.90;;;;;;5041469;28;20195;-72
2021/04/12 03:32:37;;;;;;;1.50;1.17;;;7.70;99.90;;;;;;5046840;28;20199;-70
2021/04/12 03:35:09;;;;;;;2.28;1.10;;;7.60;99.90;;;;;;5052418;28;20215;-73
2021/04/12 03:37:49;;;;;;;3.08;1.35;;;7.60;99.90;;;;;;5052801;28;20191;-70
2021/04/12 03:40:25;;;;;;;1.75;1.10;;;7.60;99.90;;;;;;5052190;28;20595;-72
2021/04/12 03:43:31;;;;;;;2.85;1.45;;;7.60;99.90;;;;;;5037245;28;20199;-70
2021/04/12 03:46:19;;;;;;;2.45;1.42;;;7.60;99.90;;;;;;5045894;28;20194;-72
2021/04/12 03:49:15;;;;;;;2.83;1.58;;;7.60;99.90;;;;;;5033636;28;20271;-71
2021/04/12 03:52:00;;;;;;;1.42;1.30;;;7.60;99.90;;;;;;5032607;28;20192;-71
2021/04/12 03:54:42;;;;;;;1.40;1.30;;;7.60;99.90;;;;;;5033670;28;20582;-71
2021/04/12 04:00:45;;;;;;;1.30;1.20;;;7.60;99.90;;;;;;4988637;28;20238;-71
2021/04/12 04:03:32;;;;;;;1.60;1.30;;;7.50;99.90;;;;;;5032999;28;20261;-72
2021/04/12 04:06:19;;;;;;;1.90;1.70;;;7.50;99.90;;;;;;5037545;28;20214;-72
2021/04/12 04:09:16;;;;;;;1.70;1.60;;;7.50;99.90;;;;;;5045330;28;20206;-72
2021/04/12 04:11:54;;;;;;;3.60;1.83;;;7.50;99.90;;;;;;5036490;28;20200;-72
2021/04/12 04:14:43;;;;;;;2.80;1.80;;;7.60;99.90;;;;;;5037250;28;20218;-72
2021/04/12 04:17:28;;;;;;;2.45;1.90;;;7.50;99.90;;;;;;5036257;28;20659;-72
2021/04/12 04:20:09;;;;;;;3.35;1.80;;;7.50;99.90;;;;;;5040434;28;20253;-71
2021/04/12 04:22:52;;;;;;;2.55;1.95;;;7.50;99.90;;;;;;5045100;28;20265;-72
2021/04/12 04:25:52;;;;;;;2.63;1.70;;;7.50;99.90;;;;;;5037418;28;20199;-72
2021/04/12 04:28:46;;;;;;;2.55;2.20;;;7.50;99.90;;;;;;5032518;28;20230;-71
2021/04/12 04:31:42;;;;;;;2.17;1.98;;;7.60;99.90;;;;;;5034882;28;20266;-71
2021/04/12 04:34:20;;;;;;;2.85;1.85;;;7.50;99.90;;;;;;5036727;28;20206;-71
2021/04/12 04:37:22;;;;;;;4.13;1.98;;;7.50;99.90;;;;;;5037812;28;20199;-71
2021/04/12 04:40:01;;;;;;;2.95;1.73;;;7.40;99.90;;;;;;4957574;28;20198;-71
2021/04/12 04:42:55;;;;;;;3.55;1.85;;;7.40;99.90;;;;;;5039254;28;20225;-72
2021/04/12 04:45:33;;;;;;;3.28;1.92;;;7.40;99.90;;;;;;5038993;28;20205;-72
2021/04/12 04:48:25;;;;;;;3.17;1.80;;;7.40;99.90;;;;;;5033985;28;20698;-72
2021/04/12 04:51:09;;;;;;;2.60;2.40;;;7.40;99.90;;;;;;5040325;28;20627;-72
2021/04/12 04:53:52;;;;;;;2.20;1.77;;;7.30;99.90;;;;;;5033575;28;20196;-72
2021/04/12 04:56:25;;;;;;;1.60;1.50;;;7.40;99.90;;;;;;5038269;28;20201;-72
2021/04/12 04:59:07;;;;;;;2.00;1.67;;;7.30;99.90;;;;;;5031612;28;20207;-72
2021/04/12 05:02:15;;;;;;;1.95;1.83;;;7.40;99.90;;;;;;5034077;28;20529;-72
2021/04/12 05:05:17;;;;;;;2.65;1.98;;;7.30;99.90;;;;;;4976865;28;20227;-72
2021/04/12 05:08:20;;;;;;;3.58;2.10;;;7.30;99.90;;;;;;5029502;28;20631;-72
2021/04/12 05:11:06;;;;;;;3.38;1.70;;;7.40;99.90;;;;;;5036863;28;20238;-72
2021/04/12 05:13:50;;;;;;;2.08;1.88;;;7.30;99.90;;;;;;5033077;28;20289;-72
2021/04/12 05:16:53;;;;;;;2.22;2.03;;;7.30;99.90;;;;;;5030330;28;20192;-71
2021/04/12 05:19:42;;;;;;;1.75;1.65;;;7.30;99.90;;;;;;5005294;28;20217;-73
2021/04/12 05:22:47;;;;;;;2.25;2.00;;;7.30;99.90;;;;;;5031882;28;20222;-73
2021/04/12 05:25:31;;;;;;;5.82;2.20;;;7.30;99.90;;;;;;5031376;28;20196;-73
2021/04/12 05:28:28;;;;;;;2.28;1.73;;;7.20;99.90;;;;;;5031029;28;20239;-72
2021/04/12 05:31:20;;;;;;;2.80;2.50;;;7.30;99.90;;;;;;5038445;28;20903;-72
2021/04/12 05:34:18;;;;;;;2.42;1.90;;;7.20;99.90;;;;;;5027777;28;20207;-72
2021/04/12 05:36:59;;;;;;;3.78;2.22;;;7.20;99.90;;;;;;5031948;28;20195;-72
2021/04/12 05:39:51;;;;;;;3.30;2.67;;;7.30;99.90;;;;;;5031018;28;20206;-72
2021/04/12 05:42:35;;;;;;;2.25;2.05;;;7.20;99.90;;;;;;5034783;28;20254;-72
2021/04/12 05:45:16;;;;;;;3.15;2.35;;;7.20;99.90;;;;;;5036344;28;20206;-72
2021/04/12 05:48:03;;;;;;;2.33;2.03;;;7.20;99.90;;;;;;5036745;28;20249;-72
2021/04/12 05:51:01;;;;;;;3.30;2.75;;;7.20;99.90;;;;;;5033810;28;20652;-72
2021/04/12 05:54:12;;;;;;;7.10;3.03;;;7.20;99.90;;;;;;5032920;28;20198;-72
2021/04/12 05:57:06;;;;;;;2.80;2.00;;;7.20;99.90;;;;;;4992420;28;20532;-71
2021/04/12 05:59:51;;;;;;;3.55;2.70;;;7.20;99.90;;;;;;5032495;28;20666;-72
2021/04/12 06:02:37;;;;;;;3.92;2.53;;;7.30;99.90;;;;;;5036182;28;20215;-72
2021/04/12 06:05:15;;;;;;;3.25;2.70;;;7.30;99.90;;;;;;5036929;28;20194;-72
2021/04/12 06:08:23;;;;;;;4.55;2.85;;;7.30;99.90;;;;;;5036474;28;20206;-72
2021/04/12 06:11:22;;;;;;;2.50;2.30;;;7.30;99.90;;;;;;5033261;28;20199;-72
2021/04/12 06:14:18;;;;;;;2.97;2.67;;;7.60;99.90;;;;;;5029588;28;20191;-72
2021/04/12 06:17:17;;;;;;;7.50;3.25;;;8.00;99.90;;;;;;5036695;28;20198;-72
2021/04/12 06:20:13;;;;;;;3.38;3.08;;;8.30;99.90;;;;;;5029307;28;20196;-72
2021/04/12 06:23:15;;;;;;;3.10;2.47;;;8.50;99.90;;;;;;5031851;28;20219;-72
2021/04/12 06:26:27;;;;;;;4.88;3.97;;;8.70;99.90;;;;;;5017062;28;20203;-72
2021/04/12 06:29:10;;;;;;;3.72;3.20;;;8.70;99.90;;;;;;5032814;28;20270;-72
2021/04/12 06:32:10;;;;;;;5.43;3.15;;;8.70;99.90;;;;;;5035472;28;20188;-72
2021/04/12 06:35:24;;;;;;;4.55;3.42;;;8.70;99.90;;;;;;5031785;28;20272;-72
2021/04/12 06:38:04;;;;;;;2.60;2.33;;;8.60;99.90;;;;;;4990762;28;20202;-71
2021/04/12 06:41:09;;;;;;;9.60;3.45;;;8.50;99.90;;;;;;5029673;28;20199;-71
2021/04/12 06:44:17;;;;;;;4.47;2.95;;;8.60;99.90;;;;;;5000424;28;20207;-72
2021/04/12 06:47:34;;;;;;;3.78;3.10;;;8.70;99.90;;;;;;4966779;28;20632;-74
2021/04/12 06:50:46;;;;;;;3.08;2.78;;;8.70;99.90;;;;;;4934846;28;20217;-72
2021/04/12 06:54:03;;;;;;;5.10;2.72;;;8.70;99.90;;;;;;5045888;28;20650;-74
2021/04/12 06:57:12;;;;;;;5.40;3.03;;;8.70;99.90;;;;;;5029659;28;20203;-74
2021/04/12 07:00:23;;;;;;;3.15;2.72;;;8.70;99.90;;;;;;5010336;28;20196;-74
2021/04/12 07:03:21;;;;;;;3.83;2.63;;;8.90;99.90;;;;;;5031266;28;20219;-73
2021/04/12 07:06:08;;;;;;;4.72;2.92;;;9.10;99.90;;;;;;5037138;28;20603;-74
2021/04/12 07:09:24;;;;;;;4.95;3.08;;;9.20;99.90;;;;;;5037030;28;20199;-75
2021/04/12 07:12:18;;;;;;;2.95;2.75;;;9.30;99.90;;;;;;5030659;28;20188;-74
2021/04/12 07:15:32;;;;;;;3.22;2.92;;;9.40;99.90;;;;;;5032496;28;20198;-74
2021/04/12 07:18:41;;;;;;;2.60;2.40;;;9.50;99.90;;;;;;4988690;28;20258;-75
2021/04/12 07:21:27;;;;;;;6.40;2.83;;;9.70;99.90;;;;;;5023580;28;20278;-74
2021/04/12 07:24:28;;;;;;;4.93;2.45;;;9.80;99.90;;;;;;5040501;28;20187;-74
2021/04/12 07:27:21;;;;;;;3.35;2.50;;;9.90;99.90;;;;;;5043594;28;20235;-73
2021/04/12 07:30:26;;;;;;;2.38;2.05;;;10.00;99.90;;;;;;5042821;28;20201;-72
2021/04/12 07:33:29;;;;;;;5.95;2.88;;;10.20;99.90;;;;;;5046346;28;20605;-74
2021/04/12 07:36:41;;;;;;;3.22;2.88;;;10.20;99.90;;;;;;4974555;28;20205;-74
2021/04/12 07:39:42;;;;;;;4.20;2.53;;;10.10;99.90;;;;;;5039613;28;20245;-73
2021/04/12 07:42:45;;;;;;;5.20;2.63;;;10.00;99.90;;;;;;5040497;28;20223;-73
2021/04/12 07:45:55;;;;;;;5.22;2.97;;;9.80;99.90;;;;;;5039565;28;20221;-73
2021/04/12 07:49:15;;;;;;;4.38;2.72;;;9.70;99.90;;;;;;5040827;28;20565;-73
2021/04/12 07:52:25;;;;;;;2.90;2.20;;;9.60;99.90;;;;;;5045946;28;20195;-73
2021/04/12 07:55:50;;;;;;;2.95;2.30;;;9.50;99.90;;;;;;5048932;28;20198;-72
2021/04/12 07:58:54;;;;;;;2.60;2.28;;;9.40;99.90;;;;;;5041601;28;20624;-71
2021/04/12 08:01:54;;;;;;;2.53;2.30;;;9.30;99.90;;;;;;5038808;28;20210;-72
2021/04/12 08:04:58;;;;;;;2.75;2.50;;;9.20;99.90;;;;;;5037517;28;20372;-72
2021/04/12 08:07:56;;;;;;;3.15;2.78;;;9.20;99.90;;;;;;5046707;28;20260;-72
2021/04/12 08:11:16;;;;;;;4.57;2.88;;;9.10;99.90;;;;;;5022757;28;20203;-71
2021/04/12 08:14:28;;;;;;;2.00;1.80;;;9.10;99.90;;;;;;5045463;28;20775;-71
2021/04/12 08:17:32;;;;;;;2.42;2.20;;;9.10;99.90;;;;;;5047081;28;20258;-72
2021/04/12 08:20:59;;;;;;;3.60;2.28;;;9.10;99.90;;;;;;5046506;28;20186;-72
2021/04/12 08:23:59;;;;;;;3.13;2.38;;;9.00;99.90;;;;;;5049105;28;20210;-71
2021/04/12 08:27:04;;;;;;;3.05;1.98;;;9.00;99.90;;;;;;5046734;28;20206;-72
2021/04/12 08:30:08;;;;;;;2.92;2.35;;;9.00;99.90;;;;;;5025629;28;20234;-72
2021/04/12 08:33:28;;;;;;;2.25;1.80;;;9.00;99.90;;;;;;5039839;28;20373;-72
2021/04/12 08:36:31;;;;;;;3.35;2.10;;;9.00;99.90;;;;;;5047284;28;20605;-79
2021/04/12 08:39:26;;;;;;;2.63;2.08;;;9.10;99.90;;;;;;5043557;28;20206;-73
2021/04/12 08:42:21;;;;;;;3.55;2.10;;;9.20;99.90;;;;;;5045909;28;20647;-71
2021/04/12 08:45:27;;;;;;;2.00;1.60;;;9.30;99.90;;;;;;5048048;28;20199;-72
2021/04/12 08:48:18;;;;;;;2.40;2.20;;;9.40;99.90;;;;;;5047274;28;20198;-72
2021/04/12 08:51:29;;;;;;;2.90;2.08;;;9.40;99.90;;;;;;5046098;28;20198;-72
2021/04/12 08:54:38;;;;;;;1.90;1.55;;;9.30;99.90;;;;;;5048524;28;20674;-74
2021/04/12 08:57:41;;;;;;;2.78;1.70;;;9.50;99.90;;;;;;5044708;28;20202;-73
2021/04/12 09:00:52;;;;;;;1.90;1.60;;;9.40;99.90;;;;;;5044529;28;20196;-73
2021/04/12 09:03:58;;;;;;;3.00;2.00;;;9.30;99.90;;;;;;5045974;28;20217;-73
2021/04/12 09:06:59;;;;;;;1.45;1.35;;;9.10;99.90;;;;;;5046678;28;20674;-73
2021/04/12 09:09:56;;;;;;;5.30;1.73;;;9.10;99.90;;;;;;5047378;28;20211;-73
2021/04/12 09:13:11;;;;;;;2.40;2.00;;;9.10;99.90;;;;;;5047639;28;20277;-73
2021/04/12 09:16:12;;;;;;;3.80;1.40;;;9.10;99.90;;;;;;5009192;28;20194;-73
2021/04/12 09:19:17;;;;;;;1.73;1.42;;;9.10;99.90;;;;;;5047063;28;20207;-73
2021/04/12 09:22:33;;;;;;;3.35;1.50;;;9.00;99.90;;;;;;5044251;28;20272;-73
2021/04/12 09:25:37;;;;;;;2.33;1.85;;;9.30;99.90;;;;;;5039056;28;20199;-72
2021/04/12 09:28:36;;;;;;;5.93;1.95;;;9.50;99.90;;;;;;5045924;28;20231;-73
2021/04/12 09:31:26;;;;;;;2.85;1.50;;;9.70;99.90;;;;;;5029254;28;20187;-73
2021/04/12 09:34:30;;;;;;;1.65;1.30;;;9.80;99.90;;;;;;5046422;28;20203;-73
2021/04/12 09:37:44;;;;;;;2.45;1.50;;;9.90;99.90;;;;;;5046670;28;20194;-73
2021/04/12 09:40:39;;;;;;;2.75;1.90;;;10.00;99.90;;;;;;5047279;28;20206;-73
2021/04/12 09:43:48;;;;;;;2.58;1.38;;;10.00;99.90;;;;;;5043926;28;20229;-73
2021/04/12 09:46:53;;;;;;;2.88;1.20;;;10.00;99.90;;;;;;5044262;28;20198;-73
2021/04/12 09:50:02;;;;;;;1.40;1.20;;;9.90;99.90;;;;;;5044500;28;20198;-73
2021/04/12 09:52:45;;;;;;;1.27;1.17;;;9.90;99.90;;;;;;5045348;28;20197;-73
2021/04/12 09:55:56;;;;;;;3.25;1.35;;;10.00;99.90;;;;;;5042904;28;20744;-72
2021/04/12 09:58:58;;;;;;;2.45;1.42;;;10.10;99.90;;;;;;5047954;28;20195;-71
2021/04/12 10:01:44;;;;;;;2.88;1.45;;;10.10;99.90;;;;;;5042197;28;20237;-71
2021/04/12 10:04:46;;;;;;;2.00;1.25;;;10.10;99.90;;;;;;5042820;28;20202;-71
2021/04/12 10:07:21;;;;;;;2.25;1.27;;;10.10;99.90;;;;;;5046377;28;20209;-71
2021/04/12 10:10:04;;;;;;;1.92;1.38;;;10.10;99.90;;;;;;5047785;28;20264;-72
2021/04/12 10:12:45;;;;;;;2.30;1.23;;;10.10;99.90;;;;;;5047469;28;20552;-72
2021/04/12 10:15:40;;;;;;;5.15;3.03;;;9.90;99.90;;;;;;5050251;28;20249;-73
2021/04/12 10:18:14;;;;;;;5.22;3.00;;;9.90;99.90;;;;;;5043135;28;20742;-70
2021/04/12 10:20:45;;;;;;;3.45;2.60;;;9.80;99.90;;;;;;5046624;28;20252;-69
2021/04/12 10:23:19;;;;;;;4.45;1.60;;;9.80;99.90;;;;;;5048024;28;20241;-72
2021/04/12 10:25:54;;;;;;;2.40;1.88;;;9.70;99.90;;;;;;5046692;28;20585;-71
2021/04/12 10:28:23;;;;;;;2.80;1.63;;;9.80;99.90;;;;;;5045083;28;20218;-74
2021/04/12 10:31:02;;;;;;;2.15;1.70;;;9.70;99.90;;;;;;5046323;28;20195;-72
2021/04/12 10:33:42;;;;;;;1.80;1.45;;;9.70;99.90;;;;;;5047353;28;20186;-74
2021/04/12 10:36:19;;;;;;;1.75;1.58;;;9.80;99.90;;;;;;5044643;28;20220;-73
2021/04/12 10:38:51;;;;;;;1.95;1.38;;;9.90;99.90;;;;;;5047108;28;20195;-72
2021/04/12 10:41:24;;;;;;;4.90;1.60;;;9.90;99.90;;;;;;5045771;28;20202;-72
2021/04/12 10:43:57;;;;;;;2.83;2.20;;;10.00;99.90;;;;;;5044739;28;20191;-73
2021/04/12 10:46:27;;;;;;;2.75;1.60;;;10.00;99.90;;;;;;5044789;28;20680;-72
2021/04/12 10:48:58;;;;;;;2.78;1.88;;;10.10;99.90;;;;;;5047327;28;20199;-72
2021/04/12 10:51:41;;;;;;;1.95;1.50;;;10.10;99.90;;;;;;5047562;28;20198;-72
2021/04/12 10:54:28;;;;;;;2.25;1.80;;;10.10;99.90;;;;;;5043753;28;20225;-73
2021/04/12 10:57:04;;;;;;;1.35;1.15;;;10.00;99.90;;;;;;5047352;28;20856;-71
2021/04/12 11:00:03;;;;;;;1.80;1.40;;;10.00;99.90;;;;;;5044334;28;20195;-73
2021/04/12 11:02:51;;;;;;;2.03;1.63;;;9.90;99.90;;;;;;5037808;28;20214;-72
2021/04/12 11:05:20;;;;;;;1.50;1.05;;;9.70;99.90;;;;;;5050162;28;20634;-73
2021/04/12 11:07:53;;;;;;;1.33;0.90;;;9.70;99.90;;;;;;5048867;28;20834;-73
2021/04/12 11:10:35;;;;;;;2.13;1.08;;;9.70;99.90;;;;;;5048577;28;20608;-72
2021/04/12 11:13:06;;;;;;;3.83;1.50;;;9.70;99.90;;;;;;5044950;28;20187;-72
2021/04/12 11:15:51;;;;;;;1.75;1.60;;;9.80;99.90;;;;;;5044533;28;20191;-72
2021/04/12 11:18:30;;;;;;;1.83;1.27;;;9.80;99.90;;;;;;5047868;28;20191;-76
2021/04/12 11:21:06;;;;;;;1.63;1.20;;;9.90;99.90;;;;;;5048557;28;20195;-74
2021/04/12 11:23:37;;;;;;;2.15;1.33;;;9.90;99.90;;;;;;5047450;28;20202;-73
2021/04/12 11:26:15;;;;;;;3.72;1.40;;;10.00;99.90;;;;;;5050027;28;20206;-72
2021/04/12 11:28:53;;;;;;;1.55;1.10;;;10.00;99.90;;;;;;5051292;28;20202;-73
2021/04/12 11:31:35;;;;;;;3.25;1.40;;;10.00;99.90;;;;;;5049176;28;20222;-74
2021/04/12 11:34:08;;;;;;;1.40;0.90;;;10.00;99.90;;;;;;5048227;28;20264;-74
2021/04/12 11:36:45;;;;;;;2.30;1.30;;;10.00;99.90;;;;;;5047990;28;20273;-74
2021/04/12 11:39:15;;;;;;;2.67;1.05;;;10.00;99.90;;;;;;5048405;28;20527;-73
2021/04/12 11:41:54;;;;;;;2.95;1.20;;;10.00;99.90;;;;;;5048494;28;20307;-74
2021/04/12 11:44:26;;;;;;;2.55;1.10;;;10.00;99.90;;;;;;5049201;28;20650;-74
2021/04/12 11:47:13;;;;;;;1.30;1.00;;;10.00;99.90;;;;;;5050032;28;20201;-75
2021/04/12 11:49:48;;;;;;;1.75;1.25;;;9.90;99.90;;;;;;5046332;28;20210;-76
2021/04/12 11:52:19;;;;;;;4.55;1.70;;;9.90;99.90;;;;;;5045041;28;21077;-74
2021/04/12 11:54:56;;;;;;;1.45;1.10;;;9.90;99.90;;;;;;5047470;28;20202;-72
2021/04/12 11:57:40;;;;;;;2.15;1.20;;;9.80;99.90;;;;;;5049301;28;20210;-74
2021/04/12 12:00:08;;;;;;;4.22;1.17;;;9.80;99.90;;;;;;5050073;28;20195;-73
2021/04/12 12:02:45;;;;;;;2.13;1.20;;;9.80;99.90;;;;;;5045666;28;20219;-74
2021/04/12 12:05:15;;;;;;;3.95;1.10;;;9.70;99.90;;;;;;5047573;28;20191;-73
2021/04/12 12:07:49;;;;;;;1.40;1.10;;;9.70;99.90;;;;;;5047722;28;20201;-72
2021/04/12 12:10:38;;;;;;;1.33;1.00;;;9.70;99.90;;;;;;5044728;28;20191;-73
2021/04/12 12:13:11;;;;;;;1.20;1.05;;;9.70;99.90;;;;;;5046079;28;20202;-74
2021/04/12 12:15:56;;;;;;;1.90;1.20;;;9.70;99.90;;;;;;5049650;28;20191;-74
2021/04/12 12:18:26;;;;;;;2.88;1.60;;;9.60;99.90;;;;;;5048626;28;20195;-74
2021/04/12 12:21:00;;;;;;;1.50;1.05;;;9.60;99.90;;;;;;5047545;28;20635;-73
2021/04/12 12:23:43;;;;;;;1.25;1.00;;;9.60;99.90;;;;;;5047062;28;20233;-72
2021/04/12 12:26:19;;;;;;;2.40;1.40;;;9.60;99.90;;;;;;5040720;28;20199;-70
2021/04/12 12:28:52;;;;;;;2.97;1.63;;;9.60;99.90;;;;;;5026270;28;20206;-71
2021/04/12 12:31:32;;;;;;;1.40;1.30;;;9.50;99.90;;;;;;5025479;28;20655;-72
2021/04/12 12:34:18;;;;;;;2.00;1.80;;;9.50;99.90;;;;;;5030840;28;20589;-72
2021/04/12 12:36:51;;;;;;;3.78;1.67;;;9.50;99.90;;;;;;5025718;28;20530;-72
2021/04/12 12:39:29;;;;;;;1.30;1.08;;;9.50;99.90;;;;;;5027046;28;20192;-72
2021/04/12 12:42:00;;;;;;;1.65;1.55;;;9.50;99.90;;;;;;5029374;28;20679;-72
2021/04/12 12:44:28;;;;;;;1.80;1.33;;;9.50;99.90;;;;;;5029516;28;20200;-71
2021/04/12 12:46:55;;;;;;;2.20;1.10;;;9.50;99.90;;;;;;5028252;28;20199;-72
2021/04/12 12:49:26;;;;;;;1.35;1.10;;;9.60;99.90;;;;;;5027906;28;20695;-72
2021/04/12 12:51:55;;;;;;;2.20;1.05;;;9.50;99.90;;;;;;5028887;28;20245;-71
2021/04/12 12:54:27;;;;;;;1.50;1.17;;;9.50;99.90;;;;;;5023848;28;20262;-72
2021/04/12 12:57:04;;;;;;;1.50;1.05;;;9.50;99.90;;;;;;5029709;28;20195;-72
2021/04/12 12:59:36;;;;;;;1.00;0.90;;;9.40;99.90;;;;;;5027438;28;20195;-72
2021/04/12 13:02:13;;;;;;;1.38;1.20;;;9.30;99.90;;;;;;5029041;28;20207;-72
2021/04/12 13:04:51;;;;;;;2.50;1.10;;;9.40;99.90;;;;;;5028803;28;20203;-72
2021/04/12 13:07:21;;;;;;;1.83;1.00;;;9.40;99.90;;;;;;5028079;28;20207;-72
2021/04/12 13:09:54;;;;;;;1.10;0.90;;;9.40;99.90;;;;;;5028197;28;20261;-71
2021/04/12 13:12:22;;;;;;;1.20;1.10;;;9.40;99.90;;;;;;5020779;28;20623;-72
2021/04/12 13:14:50;;;;;;;1.75;1.13;;;9.40;99.90;;;;;;5021385;28;20192;-72
2021/04/12 13:17:26;;;;;;;1.88;1.40;;;9.40;99.90;;;;;;5024561;28;20211;-72
2021/04/12 13:19:55;;;;;;;1.85;1.10;;;9.40;99.90;;;;;;5022850;28;20230;-72
2021/04/12 13:22:26;;;;;;;1.30;1.08;;;9.40;99.90;;;;;;5017603;28;20228;-73
2021/04/12 13:24:53;;;;;;;4.88;1.85;;;9.50;99.90;;;;;;5016017;28;20255;-73
2021/04/12 13:27:22;;;;;;;2.42;1.20;;;9.40;99.90;;;;;;5026008;28;20236;-72
2021/04/12 13:29:51;;;;;;;1.02;0.93;;;9.40;99.90;;;;;;5036914;28;20191;-73
2021/04/12 13:32:21;;;;;;;2.10;1.33;;;9.40;99.90;;;;;;5040104;28;20191;-72
2021/04/12 13:34:51;;;;;;;1.98;1.08;;;9.40;99.90;;;;;;5038493;28;20192;-72
2021/04/12 13:37:20;;;;;;;1.50;1.10;;;9.40;99.90;;;;;;5048852;28;20581;-72
2021/04/12 13:39:50;;;;;;;4.72;1.52;;;9.40;99.90;;;;;;5045901;28;20206;-73
2021/04/12 13:42:22;;;;;;;1.92;1.50;;;9.40;99.90;;;;;;5043116;28;20219;-72
2021/04/12 13:44:52;;;;;;;1.35;1.25;;;9.40;99.90;;;;;;5043799;28;20176;-71
2021/04/12 13:47:24;;;;;;;1.60;1.50;;;9.50;99.90;;;;;;5030300;28;20529;-72
2021/04/12 13:49:55;;;;;;;1.65;1.55;;;9.40;99.90;;;;;;5031830;28;20257;-71
2021/04/12 13:52:25;;;;;;;1.45;1.35;;;9.50;99.90;;;;;;5042536;28;20270;-71
2021/04/12 13:54:57;;;;;;;1.58;1.48;;;9.40;99.90;;;;;;5049883;28;20218;-71
2021/04/12 13:57:32;;;;;;;2.28;1.20;;;9.40;99.90;;;;;;5040119;28;20196;-71
2021/04/12 14:00:08;;;;;;;1.30;1.10;;;9.40;99.90;;;;;;5030956;28;20249;-71
2021/04/12 14:02:39;;;;;;;1.38;1.27;;;9.40;99.90;;;;;;5040762;28;20359;-72
2021/04/12 14:05:12;;;;;;;1.85;1.58;;;9.40;99.90;;;;;;5048770;28;20847;-72
2021/04/12 14:07:43;;;;;;;1.75;1.65;;;9.40;99.90;;;;;;5047416;28;20199;-71
2021/04/12 14:10:20;;;;;;;2.35;1.40;;;9.50;99.90;;;;;;5044763;28;20273;-74
2021/04/12 14:12:54;;;;;;;2.05;1.38;;;9.60;99.90;;;;;;5032312;28;20200;-70
2021/04/12 14:15:30;;;;;;;1.88;1.20;;;9.60;99.90;;;;;;5032331;28;20238;-73
2021/04/12 14:18:03;;;;;;;2.30;1.90;;;9.70;99.90;;;;;;5038605;28;20508;-72
2021/04/12 14:20:36;;;;;;;1.80;1.20;;;9.70;99.90;;;;;;5048884;28;20198;-72
2021/04/12 14:23:13;;;;;;;1.88;1.73;;;9.80;99.90;;;;;;5048882;28;20202;-72
2021/04/12 14:25:42;;;;;;;1.55;1.45;;;9.70;99.90;;;;;;5032347;28;20195;-71
2021/04/12 14:28:13;;;;;;;1.95;1.30;;;9.80;99.90;;;;;;5034681;28;20626;-73
2021/04/12 14:30:46;;;;;;;1.50;1.40;;;9.80;99.90;;;;;;5035803;28;20186;-71
2021/04/12 14:33:18;;;;;;;1.58;1.30;;;9.80;99.90;;;;;;5036736;28;20203;-72
2021/04/12 14:35:45;;;;;;;2.13;1.50;;;9.80;99.90;;;;;;5046214;28;20206;-73
2021/04/12 14:38:16;;;;;;;1.60;1.27;;;9.90;99.90;;;;;;5052786;28;20202;-73
2021/04/12 14:40:50;;;;;;;2.30;1.38;;;9.90;99.90;;;;;;5041229;28;20188;-73